AirNav   TITAN Aviation Fuels
 
 947 users online  

32WI Dalonia Airport
Hortonville, Wisconsin, USA

GOING TO HORTONVILLE?


FAA INFORMATION EFFECTIVE 26 JANUARY 2023

Location

FAA Identifier: 32WI
Lat/Long: 44-18-58.9330N 088-42-03.3850W
44-18.982217N 088-42.056417W
44.3163703,-88.7009403
(estimated)
Elevation: 850 ft. / 259 m (estimated)
Variation: 01W (1990)
From city: 3 miles NW of HORTONVILLE, WI
Time zone: UTC -6 (UTC -5 during Daylight Saving Time)
Zip code: 54944

Airport Operations

Airport use: Private use. Permission required prior to landing
Activation date: 12/1991
Control tower: no
ARTCC: MINNEAPOLIS CENTER
FSS: GREEN BAY FLIGHT SERVICE STATION
Attendance: UNATNDD
Segmented circle: no

Airport Communications

WX AWOS-3 at ATW (9 nm SE): PHONE 920-832-2597
WX AWOS-3 at PCZ (14 nm W): 118.625 (920-867-2407)
WX AWOS-3 at CLI (18 nm N): 120.675 (715-823-7691)

Nearby radio navigation aids

VOR radial/distance  VOR name  Freq  Var
OSHr340/20.5OSHKOSH VORTAC116.7502E
GRBr236/26.0GREEN BAY VORTAC115.5001E

 
NDB name  Hdg/Dist  Freq  Var  ID
KOOKY297/14.340702WAQ .- --.-

Airport Services

Runway Information

Runway 9/27

Dimensions: 2050 x 50 ft. / 625 x 15 m
Surface: turf
RUNWAY 9  RUNWAY 27
Traffic pattern: leftleft
Obstructions: none15 ft. road, 340 ft. from runway

Airport Ownership and Management from official FAA records

Ownership: Privately-owned
Owner: ROBERT T. OUDENHOYEN
W10110 RIDGE RD
HORTONVILLE, WI 54944
Phone 414-779-6083
Manager: ROBERT T. OUDENHOYEN
W10110 RIDGE RD
HORTONVILLE, WI 54944
Phone 414-779-6083

Additional Remarks

RY 09/27 NOT MKD YEAR AROUND DUE TO WINTER MAINTENANCE OR GROUNDS KEEPING.
FOR CD CTC MINNEAPOLIS ARTCC AT 651-463-5588.

Instrument Procedures

There are no published instrument procedures at 32WI.

Some nearby airports with instrument procedures:

KATW - Appleton International Airport (9 nm SE)
KPCZ - Waupaca Municipal Airport (14 nm W)
KCLI - Clintonville Municipal Airport (18 nm N)
KOSH - Wittman Regional Airport (21 nm S)
KGRB - Green Bay/Austin Straubel International Airport (26 nm NE)
 
Loc | Ops | Rwys | IFR | FBO | Links
Com | Nav | Svcs | Stats | Notes
Area around 32WI (Dalonia Airport)
 
Road maps at: MapQuest Bing Google
 
Aerial photo
No photo
 
Sectional chart

 
Airport distance calculator
Flying to Dalonia Airport? Find the distance to fly.

From to 32WI

Sunrise and sunset
Times for 27-Jan-2023
 Local
(UTC-6)
 Zulu
(UTC)
Morning civil twilight06:4812:48
Sunrise07:1913:19
Sunset16:5622:56
Evening civil twilight17:2723:27

Current date and time
Zulu (UTC)  27-Jan-2023 12:55:57
Local (UTC-6)  27-Jan-2023 06:55:57
 
METAR
KATW 
9nm SE 
271145Z 16009KT 10SM SCT110 M11/M14 A2966
KPCZ 
14nm W 
271235Z AUTO 16011G15KT 7SM SCT023 BKN034 OVC047 M07/M11 A2963 RMK AO2 T10751107
KCLI 
17nm N 
271235Z AUTO 17011KT 3SM -SN BR OVC028 M10/M12 A2963 RMK AO2 T11001122
TAF
KATW 
9nm SE 
271123Z 2712/2812 18010G17KT P6SM SCT020 OVC060 WS020/22040KT TEMPO 2712/2714 3SM -SN BR OVC020 FM271400 18016G22KT 2SM -SN BR SCT012 OVC020 WS020/22045KT TEMPO 2714/2718 3/4SM -SN BR OVC012 FM271900 24017G27KT P6SM OVC016 FM272300 28017G26KT P6SM BKN026 FM280200 28011G18KT P6SM BKN060
NOTAMs
Click for the latest NOTAMs
NOTAMs are issued by the DoD/FAA and will open in a separate window not controlled by AirNav.

 

 
 

Would you like to see your business listed on this page?

 If your business provides an interesting product or service to pilots, flight crews, aircraft, or users of the Dalonia Airport, you should consider listing it here.  To start the listing process, click on the button below
 
Add a business
 

Other Pages about Dalonia Airport

Update a link
 
Copyright © AirNav, LLC. All rights reserved. Privacy Policy  Contact